createdAt,value
2022-09-20T00:04:08.274Z,15.30
2022-09-20T00:12:13.734Z,15.30
2022-09-20T00:20:21.814Z,15.10
2022-09-20T00:28:27.931Z,15.00
2022-09-20T00:36:35.866Z,15.00
2022-09-20T00:44:52.775Z,15.10
2022-09-20T00:53:05.567Z,15.00
2022-09-20T01:01:11.084Z,14.90
2022-09-20T01:09:19.118Z,14.80
2022-09-20T01:17:28.854Z,15.00
2022-09-20T01:25:59.449Z,15.00
2022-09-20T01:34:11.306Z,14.90
2022-09-20T01:42:17.709Z,15.00
2022-09-20T01:50:36.697Z,15.10
2022-09-20T01:59:24.344Z,15.20
2022-09-20T02:07:49.739Z,15.10
2022-09-20T02:16:14.165Z,14.40
2022-09-20T02:24:31.801Z,14.80
2022-09-20T02:32:54.270Z,14.90
2022-09-20T02:41:37.674Z,14.90
2022-09-20T02:49:56.681Z,15.00
2022-09-20T02:58:15.866Z,15.10
2022-09-20T03:06:30.413Z,15.20
2022-09-20T03:14:41.352Z,15.20
2022-09-20T03:23:01.140Z,15.20
2022-09-20T03:31:21.924Z,14.50
2022-09-20T03:39:50.798Z,14.60
2022-09-20T03:48:18.293Z,14.90
2022-09-20T03:56:44.246Z,15.00
2022-09-20T04:04:57.618Z,15.00
2022-09-20T04:13:16.524Z,15.20
2022-09-20T04:21:31.702Z,15.20
2022-09-20T04:29:44.829Z,15.10
2022-09-20T04:37:54.941Z,15.00
2022-09-20T04:46:42.510Z,15.30
2022-09-20T04:55:25.465Z,15.20
2022-09-20T05:03:58.623Z,15.70
2022-09-20T05:12:39.012Z,16.00
2022-09-20T05:20:56.915Z,16.40
2022-09-20T05:29:11.497Z,16.50
2022-09-20T05:37:31.129Z,16.60
2022-09-20T05:46:06.846Z,16.50
2022-09-20T05:54:38.457Z,16.20
2022-09-20T06:02:56.253Z,16.50
2022-09-20T06:11:17.559Z,16.70
2022-09-20T06:19:37.824Z,16.70
2022-09-20T06:27:48.235Z,17.40
2022-09-20T06:36:20.583Z,17.70
2022-09-20T06:44:25.927Z,18.00
2022-09-20T06:52:33.869Z,18.10
2022-09-20T07:00:39.861Z,17.90
2022-09-20T07:08:47.814Z,18.30
2022-09-20T07:16:53.038Z,18.60
2022-09-20T07:25:02.636Z,18.70
2022-09-20T07:33:10.067Z,18.60
2022-09-20T07:41:19.199Z,18.60
2022-09-20T07:49:25.488Z,18.60
2022-09-20T07:57:37.412Z,18.70
2022-09-20T08:05:43.337Z,18.50
2022-09-20T08:14:09.104Z,18.40
2022-09-20T08:22:14.840Z,18.60
2022-09-20T08:30:27.779Z,18.70
2022-09-20T08:47:10.073Z,19.10
2022-09-20T08:55:19.554Z,19.20
2022-09-20T09:03:28.848Z,19.40
2022-09-20T09:11:34.130Z,19.70
2022-09-20T09:19:50.487Z,20.20
2022-09-20T09:28:00.800Z,21.30
2022-09-20T09:36:16.801Z,22.10
2022-09-20T09:44:27.851Z,23.00
2022-09-20T09:52:36.552Z,23.20
2022-09-20T10:00:46.732Z,22.80
2022-09-20T10:09:17.042Z,22.70
2022-09-20T10:17:42.070Z,21.70
2022-09-20T10:25:55.269Z,22.00
2022-09-20T10:34:09.384Z,24.20
2022-09-20T10:42:45.973Z,23.60
2022-09-20T10:50:59.957Z,25.70
2022-09-20T10:59:27.971Z,32.70
2022-09-20T11:07:46.602Z,41.20
2022-09-20T11:16:02.401Z,46.60
2022-09-20T11:24:16.118Z,50.00
2022-09-20T11:32:28.674Z,50.20
2022-09-20T11:40:37.597Z,51.60
2022-09-20T11:48:48.425Z,52.00
2022-09-20T11:56:56.633Z,50.50
2022-09-20T12:05:06.479Z,49.10
2022-09-20T12:13:25.441Z,39.80
2022-09-20T12:21:33.354Z,33.50
2022-09-20T12:29:58.204Z,30.30
2022-09-20T12:38:29.154Z,27.70
2022-09-20T12:46:43.964Z,26.50
2022-09-20T12:54:59.478Z,26.00
2022-09-20T13:03:27.278Z,25.10
2022-09-20T13:11:42.904Z,24.00
2022-09-20T13:19:50.190Z,23.20
2022-09-20T13:28:06.296Z,23.00
2022-09-20T13:36:11.652Z,22.90
2022-09-20T13:44:25.585Z,23.20
2022-09-20T13:52:33.097Z,23.10
2022-09-20T14:00:50.024Z,22.70
2022-09-20T14:08:55.858Z,22.80
2022-09-20T14:17:07.449Z,22.60
2022-09-20T14:25:25.538Z,22.30
2022-09-20T14:33:33.680Z,22.10
2022-09-20T14:41:42.060Z,21.90
2022-09-20T14:49:50.020Z,21.90
2022-09-20T14:57:56.038Z,21.40
2022-09-20T15:06:04.339Z,21.10
2022-09-20T15:14:09.847Z,20.80
2022-09-20T15:22:18.805Z,20.30
2022-09-20T15:30:24.088Z,20.10
2022-09-20T15:38:32.071Z,20.00
2022-09-20T15:46:37.862Z,19.80
2022-09-20T15:54:46.285Z,19.60
2022-09-20T16:02:52.718Z,19.50
2022-09-20T16:11:04.272Z,19.50
2022-09-20T16:19:21.474Z,19.50
2022-09-20T16:27:31.836Z,19.40
2022-09-20T16:35:37.124Z,19.30
2022-09-20T16:43:45.320Z,19.30
2022-09-20T16:51:50.625Z,19.30
2022-09-20T16:59:59.077Z,18.90
2022-09-20T17:08:04.822Z,18.90
2022-09-20T17:16:14.985Z,18.90
2022-09-20T17:24:21.089Z,19.00
2022-09-20T17:32:29.551Z,18.90
2022-09-20T17:40:35.125Z,18.90
2022-09-20T17:48:43.193Z,18.80
2022-09-20T17:56:50.461Z,18.90
2022-09-20T18:04:58.584Z,18.90
2022-09-20T18:13:04.902Z,19.00
2022-09-20T18:21:20.272Z,18.80
2022-09-20T18:29:29.438Z,18.80
2022-09-20T18:37:37.944Z,18.70
2022-09-20T18:45:43.362Z,18.80
2022-09-20T18:53:51.444Z,18.80
2022-09-20T19:02:29.621Z,18.70
2022-09-20T19:10:45.146Z,18.70
2022-09-20T19:19:08.490Z,18.70
2022-09-20T19:27:17.811Z,18.60
2022-09-20T19:35:29.310Z,18.50
2022-09-20T19:43:59.760Z,18.00
2022-09-20T19:52:09.126Z,18.30
2022-09-20T20:00:20.301Z,18.40
2022-09-20T20:08:34.596Z,18.20
2022-09-20T20:16:50.387Z,18.10
2022-09-20T20:24:57.021Z,18.00
2022-09-20T20:33:06.062Z,17.90
2022-09-20T20:41:13.196Z,17.80
2022-09-20T20:49:21.086Z,17.80
2022-09-20T20:57:26.533Z,17.70
2022-09-20T21:05:34.457Z,17.60
2022-09-20T21:13:39.887Z,17.40
2022-09-20T21:21:49.638Z,17.30
2022-09-20T21:29:54.942Z,17.20
2022-09-20T21:38:02.825Z,17.30
2022-09-20T21:46:08.318Z,16.90
2022-09-20T21:54:16.230Z,17.20
2022-09-20T22:02:21.549Z,17.00
2022-09-20T22:10:29.475Z,17.00
2022-09-20T22:18:37.765Z,17.00
2022-09-20T22:26:47.776Z,17.00
2022-09-20T22:34:53.034Z,17.10
2022-09-20T22:43:01.669Z,17.30
2022-09-20T22:51:08.908Z,17.10
2022-09-20T22:59:17.838Z,17.00
2022-09-20T23:07:23.242Z,16.90
2022-09-20T23:15:31.192Z,16.90
2022-09-20T23:23:36.937Z,16.80
2022-09-20T23:31:47.293Z,16.80
2022-09-20T23:39:52.822Z,16.90
2022-09-20T23:48:00.716Z,16.60
2022-09-20T23:56:06.746Z,16.60
